createdAt,value
2019-03-29T00:01:56.428Z,21.07
2019-03-29T00:04:22.598Z,19.75
2019-03-29T00:06:48.758Z,19.42
2019-03-29T00:09:14.901Z,20.57
2019-03-29T00:11:41.023Z,21.42
2019-03-29T00:14:07.267Z,21.87
2019-03-29T00:16:33.436Z,22.35
2019-03-29T00:18:59.571Z,24.05
2019-03-29T00:21:25.699Z,23.77
2019-03-29T00:24:05.957Z,23.42
2019-03-29T00:26:20.016Z,23.65
2019-03-29T00:28:46.157Z,21.35
2019-03-29T00:31:12.330Z,23.62
2019-03-29T00:33:38.455Z,23.70
2019-03-29T00:36:04.601Z,23.20
2019-03-29T00:38:30.837Z,24.07
2019-03-29T00:40:57.024Z,24.05
2019-03-29T00:43:23.062Z,23.22
2019-03-29T00:45:49.622Z,23.83
2019-03-29T00:48:15.804Z,21.55
2019-03-29T00:50:41.930Z,21.77
2019-03-29T00:53:08.951Z,21.95
2019-03-29T00:55:35.325Z,20.00
2019-03-29T00:58:01.451Z,19.35
2019-03-29T01:00:31.134Z,19.25
2019-03-29T01:02:55.995Z,19.67
2019-03-29T01:05:22.158Z,19.42
2019-03-29T01:07:48.283Z,20.90
2019-03-29T01:10:14.440Z,24.87
2019-03-29T01:12:40.665Z,24.55
2019-03-29T01:15:08.985Z,23.12
2019-03-29T01:17:35.291Z,26.97
2019-03-29T01:20:02.157Z,24.90
2019-03-29T01:22:28.281Z,23.45
2019-03-29T01:24:54.417Z,22.48
2019-03-29T01:27:20.491Z,22.75
2019-03-29T01:29:46.602Z,20.77
2019-03-29T01:32:12.774Z,19.87
2019-03-29T01:34:38.900Z,20.20
2019-03-29T01:37:05.105Z,24.77
2019-03-29T01:39:31.239Z,20.52
2019-03-29T01:41:57.366Z,21.55
2019-03-29T01:44:23.496Z,21.95
2019-03-29T01:46:49.622Z,21.82
2019-03-29T01:49:16.852Z,21.23
2019-03-29T01:51:42.994Z,22.20
2019-03-29T01:54:09.152Z,22.77
2019-03-29T01:56:35.283Z,21.30
2019-03-29T01:59:01.436Z,21.07
2019-03-29T02:01:28.383Z,18.98
2019-03-29T02:03:54.700Z,15.98
2019-03-29T02:06:20.929Z,18.52
2019-03-29T02:08:47.113Z,18.48
2019-03-29T02:11:13.380Z,17.05
2019-03-29T02:13:40.380Z,18.87
2019-03-29T02:16:06.535Z,18.77
2019-03-29T02:18:32.674Z,18.50
2019-03-29T02:20:58.822Z,18.62
2019-03-29T02:23:24.972Z,18.57
2019-03-29T02:25:51.092Z,16.73
2019-03-29T02:28:17.258Z,16.73
2019-03-29T02:30:43.504Z,18.23
2019-03-29T02:33:09.622Z,17.62
2019-03-29T02:35:35.747Z,17.10
2019-03-29T02:38:01.898Z,19.02
2019-03-29T02:40:28.038Z,19.45
2019-03-29T02:42:54.165Z,19.48
2019-03-29T02:45:20.217Z,17.82
2019-03-29T02:47:47.760Z,19.15
2019-03-29T02:50:14.498Z,19.15
2019-03-29T02:52:40.654Z,16.93
2019-03-29T02:55:07.551Z,18.98
2019-03-29T02:57:33.680Z,18.67
2019-03-29T02:59:59.797Z,18.37
2019-03-29T03:02:26.699Z,18.57
2019-03-29T03:04:53.048Z,17.05
2019-03-29T03:07:19.192Z,18.07
2019-03-29T03:09:45.365Z,18.23
2019-03-29T03:12:11.605Z,17.02
2019-03-29T03:14:37.763Z,17.48
2019-03-29T03:17:03.894Z,19.32
2019-03-29T03:19:30.030Z,20.50
2019-03-29T03:22:03.036Z,19.77
2019-03-29T03:24:26.607Z,18.67
2019-03-29T03:26:52.731Z,17.55
2019-03-29T03:29:18.824Z,19.05
2019-03-29T03:31:45.043Z,19.45
2019-03-29T03:34:11.225Z,18.80
2019-03-29T03:36:37.253Z,19.05
2019-03-29T03:39:06.111Z,18.52
2019-03-29T03:41:32.260Z,18.77
2019-03-29T03:43:58.491Z,20.95
2019-03-29T03:46:24.648Z,20.37
2019-03-29T03:48:50.771Z,20.12
2019-03-29T03:51:17.135Z,20.40
2019-03-29T03:53:43.420Z,19.90
2019-03-29T03:56:10.626Z,21.65
2019-03-29T03:58:37.816Z,20.60
2019-03-29T04:01:04.037Z,20.05
2019-03-29T04:03:30.174Z,22.02
2019-03-29T04:05:56.657Z,20.43
2019-03-29T04:08:22.811Z,19.98
2019-03-29T04:10:48.932Z,20.37
2019-03-29T04:13:15.077Z,21.25
2019-03-29T04:15:41.284Z,20.92
2019-03-29T04:18:07.440Z,22.17
2019-03-29T04:20:33.471Z,21.48
2019-03-29T04:22:59.502Z,23.73
2019-03-29T04:25:25.645Z,22.73
2019-03-29T04:27:51.798Z,21.02
2019-03-29T04:30:17.839Z,23.40
2019-03-29T04:32:43.979Z,20.65
2019-03-29T04:35:10.096Z,19.37
2019-03-29T04:37:36.134Z,20.15
2019-03-29T04:40:07.952Z,19.98
2019-03-29T04:44:59.837Z,20.32
2019-03-29T04:47:25.626Z,20.02
2019-03-29T04:49:51.909Z,20.27
2019-03-29T04:52:18.036Z,20.40
2019-03-29T04:54:44.321Z,19.05
2019-03-29T04:57:10.287Z,19.67
2019-03-29T04:59:36.442Z,21.33
2019-03-29T05:02:02.765Z,21.27
2019-03-29T05:04:28.923Z,21.40
2019-03-29T05:06:55.086Z,19.62
2019-03-29T05:09:21.212Z,18.52
2019-03-29T05:11:47.346Z,20.35
2019-03-29T05:14:13.488Z,21.60
2019-03-29T05:16:39.622Z,20.43
2019-03-29T05:19:05.813Z,22.37
2019-03-29T05:21:31.930Z,20.52
2019-03-29T05:23:58.066Z,20.80
2019-03-29T05:26:25.573Z,20.08
2019-03-29T05:28:51.872Z,20.68
2019-03-29T05:31:17.919Z,21.20
2019-03-29T05:33:46.488Z,20.50
2019-03-29T05:36:12.755Z,22.00
2019-03-29T05:38:38.800Z,20.97
2019-03-29T05:41:05.037Z,21.75
2019-03-29T05:43:31.203Z,22.37
2019-03-29T05:45:57.502Z,22.05
2019-03-29T05:48:23.884Z,22.42
2019-03-29T05:50:49.959Z,20.52
2019-03-29T05:53:16.290Z,21.25
2019-03-29T05:55:48.110Z,22.62
2019-03-29T05:58:13.104Z,21.23
2019-03-29T06:00:39.408Z,19.55
2019-03-29T06:03:05.554Z,19.87
2019-03-29T06:05:31.740Z,19.35
2019-03-29T06:07:58.026Z,23.18
2019-03-29T06:10:24.241Z,23.40
2019-03-29T06:12:50.477Z,22.10
2019-03-29T06:15:16.622Z,19.75
2019-03-29T06:17:48.854Z,18.00
2019-03-29T06:20:11.724Z,19.67
2019-03-29T06:22:37.850Z,20.80
2019-03-29T06:25:06.186Z,20.97
2019-03-29T06:27:32.434Z,22.23
2019-03-29T06:29:58.580Z,19.30
2019-03-29T06:32:24.676Z,19.98
2019-03-29T06:34:50.885Z,20.40
2019-03-29T06:37:19.318Z,24.27
2019-03-29T06:39:46.865Z,19.80
2019-03-29T06:42:14.353Z,21.90
2019-03-29T06:44:40.464Z,20.45
2019-03-29T06:47:06.526Z,16.90
2019-03-29T06:49:32.658Z,20.00
2019-03-29T06:51:58.778Z,17.55
2019-03-29T06:54:25.086Z,19.42
2019-03-29T06:56:51.371Z,16.77
2019-03-29T06:59:17.398Z,18.42
2019-03-29T07:01:46.345Z,19.30
2019-03-29T07:04:13.427Z,19.15
2019-03-29T07:06:39.551Z,20.23
2019-03-29T07:09:05.739Z,18.92
2019-03-29T07:11:31.767Z,17.67
2019-03-29T07:13:58.265Z,18.67
2019-03-29T07:16:24.424Z,18.57
2019-03-29T07:18:50.469Z,18.80
2019-03-29T07:21:21.822Z,18.40
2019-03-29T07:23:44.635Z,18.52
2019-03-29T07:26:10.756Z,18.60
2019-03-29T07:28:36.884Z,18.82
2019-03-29T07:31:03.067Z,19.62
2019-03-29T07:33:29.746Z,20.48
2019-03-29T07:35:55.951Z,20.95
2019-03-29T07:38:22.132Z,20.25
2019-03-29T07:40:48.274Z,19.92
2019-03-29T07:43:14.431Z,19.40
2019-03-29T07:45:43.430Z,21.65
2019-03-29T07:48:09.711Z,21.70
2019-03-29T07:50:37.143Z,19.65
2019-03-29T07:53:06.194Z,21.85
2019-03-29T07:55:32.441Z,21.40
2019-03-29T07:57:58.811Z,21.60
2019-03-29T08:00:25.045Z,20.50
2019-03-29T08:02:51.163Z,21.82
2019-03-29T08:05:18.097Z,22.15
2019-03-29T08:07:45.919Z,22.22
2019-03-29T08:10:24.178Z,20.37
2019-03-29T08:15:09.747Z,20.80
2019-03-29T08:17:37.985Z,22.40
2019-03-29T08:20:36.343Z,20.72
2019-03-29T08:25:24.666Z,21.90
2019-03-29T08:28:21.251Z,21.95
2019-03-29T08:30:34.705Z,21.75
2019-03-29T08:33:13.130Z,22.15
2019-03-29T08:35:39.419Z,20.30
2019-03-29T08:38:06.376Z,18.02
2019-03-29T08:40:32.791Z,15.50
2019-03-29T08:42:59.036Z,17.35
2019-03-29T08:45:27.137Z,16.20
2019-03-29T08:47:53.422Z,14.87
2019-03-29T08:50:19.673Z,15.30
2019-03-29T08:52:53.105Z,15.55
2019-03-29T08:55:19.251Z,12.75
2019-03-29T08:57:45.539Z,11.45
2019-03-29T09:00:11.966Z,10.90
2019-03-29T09:02:38.283Z,12.55
2019-03-29T09:05:04.633Z,10.85
2019-03-29T09:07:44.054Z,11.03
2019-03-29T09:09:59.016Z,12.00
2019-03-29T09:12:25.170Z,12.13
2019-03-29T09:14:51.193Z,13.10
2019-03-29T09:17:17.404Z,12.10
2019-03-29T09:19:43.510Z,12.25
2019-03-29T09:22:09.740Z,12.63
2019-03-29T09:24:35.883Z,13.55
2019-03-29T09:27:02.003Z,11.88
2019-03-29T09:29:28.227Z,11.65
2019-03-29T09:31:54.590Z,11.93
2019-03-29T09:34:23.501Z,11.18
2019-03-29T09:36:49.694Z,10.90
2019-03-29T09:39:15.861Z,11.08
2019-03-29T09:41:42.077Z,11.57
2019-03-29T09:44:08.393Z,9.15
2019-03-29T09:46:34.711Z,11.00
2019-03-29T09:49:00.871Z,11.22
2019-03-29T09:51:27.029Z,13.32
2019-03-29T09:53:53.178Z,12.53
2019-03-29T09:56:21.423Z,12.90
2019-03-29T09:58:47.724Z,12.20
2019-03-29T10:01:22.950Z,11.43
2019-03-29T10:03:51.342Z,12.90
2019-03-29T10:06:17.473Z,12.37
2019-03-29T10:08:43.645Z,11.97
2019-03-29T10:11:09.880Z,12.37
2019-03-29T10:13:36.003Z,11.33
2019-03-29T10:16:02.156Z,11.97
2019-03-29T10:18:34.578Z,11.97
2019-03-29T10:21:00.885Z,12.63
2019-03-29T10:23:32.978Z,12.75
2019-03-29T10:26:06.074Z,12.80
2019-03-29T10:28:32.570Z,11.85
2019-03-29T10:30:58.747Z,11.65
2019-03-29T10:33:25.061Z,11.12
2019-03-29T10:35:52.722Z,11.90
2019-03-29T10:38:19.216Z,12.55
2019-03-29T10:40:45.353Z,11.80
2019-03-29T10:43:11.465Z,11.97
2019-03-29T10:45:40.283Z,11.85
2019-03-29T10:48:05.643Z,11.85
2019-03-29T10:50:31.774Z,13.20
2019-03-29T10:52:57.905Z,12.15
2019-03-29T10:55:26.075Z,13.35
2019-03-29T10:57:55.373Z,14.18
2019-03-29T11:02:49.851Z,12.15
2019-03-29T11:05:16.097Z,13.32
2019-03-29T11:07:42.336Z,12.90
2019-03-29T11:10:12.187Z,13.22
2019-03-29T11:12:38.407Z,12.98
2019-03-29T11:15:06.753Z,13.53
2019-03-29T11:17:33.239Z,12.50
2019-03-29T11:19:59.369Z,13.03
2019-03-29T11:22:25.584Z,13.10
2019-03-29T11:24:51.712Z,12.95
2019-03-29T11:27:17.981Z,13.85
2019-03-29T11:29:49.213Z,12.35
2019-03-29T11:32:17.881Z,12.90
2019-03-29T11:34:44.001Z,11.97
2019-03-29T11:37:10.321Z,12.50
2019-03-29T11:39:36.559Z,12.30
2019-03-29T11:42:03.662Z,13.68
2019-03-29T11:44:30.360Z,11.33
2019-03-29T11:46:56.684Z,11.95
2019-03-29T11:49:22.702Z,13.50
2019-03-29T11:51:48.823Z,12.65
2019-03-29T11:54:14.979Z,12.63
2019-03-29T11:56:41.101Z,11.88
2019-03-29T11:59:07.270Z,12.65
2019-03-29T12:01:33.455Z,12.23
2019-03-29T12:03:59.679Z,13.48
2019-03-29T12:06:25.807Z,12.65
2019-03-29T12:08:51.944Z,12.53
2019-03-29T12:11:18.076Z,12.18
2019-03-29T12:13:44.648Z,11.53
2019-03-29T12:16:10.777Z,12.20
2019-03-29T12:18:38.432Z,11.95
2019-03-29T12:21:04.556Z,12.95
2019-03-29T12:23:30.758Z,13.03
2019-03-29T12:25:56.876Z,12.07
2019-03-29T12:28:22.999Z,14.53
2019-03-29T12:30:49.223Z,14.05
2019-03-29T12:33:15.231Z,12.37
2019-03-29T12:35:41.418Z,12.03
2019-03-29T12:38:07.552Z,14.33
2019-03-29T12:40:33.602Z,14.18
2019-03-29T12:42:59.730Z,12.55
2019-03-29T12:45:25.900Z,11.73
2019-03-29T12:47:51.987Z,10.98
2019-03-29T12:50:18.152Z,12.35
2019-03-29T12:52:44.292Z,12.18
2019-03-29T12:55:10.432Z,13.20
2019-03-29T12:57:38.885Z,11.28
2019-03-29T13:00:06.298Z,11.38
2019-03-29T13:02:34.492Z,9.73
2019-03-29T13:05:00.466Z,10.72
2019-03-29T13:07:26.513Z,10.55
2019-03-29T13:09:53.199Z,10.40
2019-03-29T13:12:19.330Z,13.55
2019-03-29T13:14:45.472Z,10.78
2019-03-29T13:17:11.625Z,11.40
2019-03-29T13:19:38.822Z,11.18
2019-03-29T13:22:05.907Z,10.53
2019-03-29T13:24:31.927Z,11.18
2019-03-29T13:26:57.944Z,11.83
2019-03-29T13:29:24.127Z,11.00
2019-03-29T13:31:50.233Z,10.08
2019-03-29T13:34:16.368Z,10.65
2019-03-29T13:36:42.421Z,10.95
2019-03-29T13:39:08.965Z,10.10
2019-03-29T13:41:35.090Z,10.35
2019-03-29T13:44:01.217Z,10.60
2019-03-29T13:46:27.350Z,10.53
2019-03-29T13:48:53.371Z,11.12
2019-03-29T13:51:19.506Z,11.78
2019-03-29T13:53:45.523Z,10.43
2019-03-29T13:56:11.717Z,11.80
2019-03-29T13:58:37.845Z,10.25
2019-03-29T14:01:04.001Z,12.43
2019-03-29T14:03:30.045Z,11.97
2019-03-29T14:05:56.168Z,12.98
2019-03-29T14:08:22.295Z,13.45
2019-03-29T14:10:48.411Z,12.78
2019-03-29T14:13:14.565Z,14.25
2019-03-29T14:15:40.592Z,14.05
2019-03-29T14:18:06.751Z,14.25
2019-03-29T14:20:33.019Z,12.88
2019-03-29T14:23:00.467Z,12.78
2019-03-29T14:25:26.583Z,13.20
2019-03-29T14:27:52.627Z,13.72
2019-03-29T14:30:18.873Z,12.90
2019-03-29T14:32:45.453Z,14.63
2019-03-29T14:35:11.587Z,14.05
2019-03-29T14:37:37.610Z,13.98
2019-03-29T14:40:06.164Z,13.98
2019-03-29T14:42:33.171Z,15.15
2019-03-29T14:44:59.324Z,16.12
2019-03-29T14:47:38.154Z,15.18
2019-03-29T14:49:53.379Z,14.85
2019-03-29T14:52:19.512Z,16.12
2019-03-29T14:54:45.546Z,19.65
2019-03-29T14:57:11.590Z,17.90
2019-03-29T14:59:37.724Z,16.15
2019-03-29T15:02:03.955Z,16.32
2019-03-29T15:04:30.087Z,19.55
2019-03-29T15:06:56.206Z,22.10
2019-03-29T15:09:22.386Z,22.52
2019-03-29T15:11:48.471Z,24.05
2019-03-29T15:14:14.512Z,21.10
2019-03-29T15:16:40.629Z,36.53
2019-03-29T15:19:09.054Z,26.10
2019-03-29T15:21:35.289Z,28.20
2019-03-29T15:24:01.422Z,24.80
2019-03-29T15:26:27.545Z,26.30
2019-03-29T15:28:53.662Z,21.62
2019-03-29T15:31:19.814Z,23.85
2019-03-29T15:33:45.963Z,23.40
2019-03-29T15:36:12.179Z,31.90
2019-03-29T15:38:38.290Z,76.72
2019-03-29T15:41:04.504Z,31.82
2019-03-29T15:43:30.640Z,44.80
2019-03-29T15:45:56.760Z,68.57
2019-03-29T15:48:22.886Z,36.58
2019-03-29T15:50:49.016Z,33.58
2019-03-29T15:53:15.144Z,28.80
2019-03-29T15:55:41.270Z,30.97
2019-03-29T15:58:07.360Z,27.22
2019-03-29T16:00:33.485Z,39.15
2019-03-29T16:02:59.600Z,27.42
2019-03-29T16:05:25.842Z,44.80
2019-03-29T16:07:51.974Z,30.35
2019-03-29T16:10:18.130Z,40.78
2019-03-29T16:12:44.264Z,23.38
2019-03-29T16:15:10.395Z,25.50
2019-03-29T16:17:36.517Z,20.17
2019-03-29T16:20:04.273Z,31.37
2019-03-29T16:22:30.400Z,24.87
2019-03-29T16:24:56.559Z,22.62
2019-03-29T16:27:25.102Z,23.30
2019-03-29T16:29:50.651Z,22.40
2019-03-29T16:32:16.772Z,26.60
2019-03-29T16:34:46.962Z,29.48
2019-03-29T16:37:13.353Z,25.72
2019-03-29T16:39:39.643Z,25.92
2019-03-29T16:42:05.796Z,24.15
2019-03-29T16:44:32.061Z,30.90
2019-03-29T16:46:58.338Z,28.00
2019-03-29T16:49:26.453Z,29.25
2019-03-29T16:51:52.700Z,30.65
2019-03-29T16:54:19.403Z,28.90
2019-03-29T16:56:45.610Z,28.70
2019-03-29T16:59:11.833Z,25.40
2019-03-29T17:01:37.861Z,26.80
2019-03-29T17:04:04.015Z,27.67
2019-03-29T17:06:31.747Z,25.62
2019-03-29T17:08:57.969Z,26.30
2019-03-29T17:11:24.283Z,26.50
2019-03-29T17:13:50.466Z,23.18
2019-03-29T17:16:29.433Z,23.32
2019-03-29T17:18:46.307Z,25.23
2019-03-29T17:21:12.635Z,22.73
2019-03-29T17:23:40.334Z,24.72
2019-03-29T17:26:11.906Z,22.17
2019-03-29T17:28:38.135Z,24.40
2019-03-29T17:31:06.246Z,25.85
2019-03-29T17:33:32.386Z,28.62
2019-03-29T17:35:58.653Z,29.45
2019-03-29T17:38:24.803Z,25.90
2019-03-29T17:40:50.927Z,26.02
2019-03-29T17:43:17.289Z,25.72
2019-03-29T17:45:43.571Z,20.82
2019-03-29T17:48:09.870Z,24.35
2019-03-29T17:50:35.993Z,25.62
2019-03-29T17:53:02.117Z,23.02
2019-03-29T17:55:31.566Z,25.55
2019-03-29T17:57:56.488Z,24.00
2019-03-29T18:00:27.208Z,32.30
2019-03-29T18:02:53.504Z,36.05
2019-03-29T18:05:19.764Z,34.85
2019-03-29T18:07:45.902Z,28.00
2019-03-29T18:10:12.292Z,34.00
2019-03-29T18:12:42.915Z,24.15
2019-03-29T18:15:09.534Z,26.50
2019-03-29T18:17:35.635Z,24.70
2019-03-29T18:20:03.388Z,40.65
2019-03-29T18:22:31.563Z,24.72
2019-03-29T18:25:00.908Z,27.80
2019-03-29T18:29:53.130Z,20.80
2019-03-29T18:32:19.377Z,21.42
2019-03-29T18:34:45.534Z,22.20
2019-03-29T18:37:13.017Z,31.10
2019-03-29T18:39:39.279Z,20.37
2019-03-29T18:42:05.483Z,24.15
2019-03-29T18:44:31.620Z,24.12
2019-03-29T18:46:57.856Z,24.45
2019-03-29T18:49:23.999Z,93.70
2019-03-29T18:51:50.227Z,38.30
2019-03-29T18:54:16.605Z,40.73
2019-03-29T18:56:42.870Z,60.38
2019-03-29T18:59:09.157Z,38.98
2019-03-29T19:01:35.411Z,23.27
2019-03-29T19:04:06.029Z,26.07
2019-03-29T19:06:29.826Z,40.48
2019-03-29T19:08:58.067Z,49.73
2019-03-29T19:11:26.243Z,48.85
2019-03-29T19:13:52.543Z,59.65
2019-03-29T19:16:18.799Z,68.50
2019-03-29T19:18:44.947Z,46.75
2019-03-29T19:21:11.273Z,50.33
2019-03-29T19:23:37.604Z,57.95
2019-03-29T19:26:06.783Z,36.13
2019-03-29T19:28:42.052Z,53.92
2019-03-29T19:31:06.587Z,38.35
2019-03-29T19:33:32.877Z,34.45
2019-03-29T19:36:02.903Z,25.30
2019-03-29T19:38:41.014Z,30.27
2019-03-29T19:41:07.148Z,36.50
2019-03-29T19:43:33.427Z,39.27
2019-03-29T19:45:59.553Z,40.10
2019-03-29T19:48:25.861Z,43.00
2019-03-29T19:50:51.998Z,51.42
2019-03-29T19:53:18.154Z,51.02
2019-03-29T19:55:47.189Z,36.35
2019-03-29T19:58:13.412Z,51.33
2019-03-29T20:00:40.350Z,39.38
2019-03-29T20:03:06.508Z,50.03
2019-03-29T20:05:32.637Z,46.68
2019-03-29T20:08:10.976Z,39.88
2019-03-29T20:10:37.185Z,39.83
2019-03-29T20:13:03.470Z,43.98
2019-03-29T20:15:29.786Z,36.10
2019-03-29T20:17:55.995Z,40.12
2019-03-29T20:20:29.135Z,35.33
2019-03-29T20:22:56.276Z,41.53
2019-03-29T20:25:23.212Z,27.95
2019-03-29T20:27:49.492Z,25.23
2019-03-29T20:30:16.054Z,25.45
2019-03-29T20:32:43.245Z,25.15
2019-03-29T20:35:09.380Z,28.30
2019-03-29T20:37:35.544Z,33.50
2019-03-29T20:40:02.488Z,30.27
2019-03-29T20:45:15.591Z,38.42
2019-03-29T20:47:42.724Z,32.73
2019-03-29T20:51:08.757Z,31.60
2019-03-29T20:53:39.168Z,45.23
2019-03-29T20:56:06.693Z,32.40
2019-03-29T20:58:33.178Z,31.95
2019-03-29T21:01:01.352Z,29.32
2019-03-29T21:03:27.636Z,28.25
2019-03-29T21:05:54.022Z,25.10
2019-03-29T21:08:20.343Z,24.70
2019-03-29T21:10:55.577Z,22.20
2019-03-29T21:13:16.572Z,23.18
2019-03-29T21:15:44.659Z,22.30
2019-03-29T21:18:10.838Z,23.35
2019-03-29T21:20:37.118Z,31.40
2019-03-29T21:23:03.417Z,27.02
2019-03-29T21:25:29.559Z,27.20
2019-03-29T21:27:55.787Z,25.88
2019-03-29T21:30:25.871Z,27.10
2019-03-29T21:32:53.835Z,33.95
2019-03-29T21:35:20.104Z,32.42
2019-03-29T21:37:48.427Z,22.73
2019-03-29T21:40:15.220Z,23.67
2019-03-29T21:42:41.463Z,34.88
2019-03-29T21:45:08.270Z,43.55
2019-03-29T21:47:37.950Z,37.25
2019-03-29T21:50:09.213Z,37.35
2019-03-29T21:52:39.054Z,27.95
2019-03-29T21:55:05.818Z,28.10
2019-03-29T21:57:31.987Z,28.90
2019-03-29T21:59:58.186Z,26.17
2019-03-29T22:02:24.469Z,23.52
2019-03-29T22:04:50.684Z,20.95
2019-03-29T22:07:18.727Z,27.20
2019-03-29T22:09:44.900Z,34.65
2019-03-29T22:12:11.158Z,36.33
2019-03-29T22:14:37.284Z,32.17
2019-03-29T22:17:03.558Z,23.85
2019-03-29T22:19:29.725Z,29.65
2019-03-29T22:21:55.883Z,28.62
2019-03-29T22:24:22.047Z,24.10
2019-03-29T22:26:48.167Z,24.00
2019-03-29T22:29:14.201Z,17.92
2019-03-29T22:31:40.278Z,22.25
2019-03-29T22:34:06.427Z,26.95
2019-03-29T22:36:32.475Z,33.98
2019-03-29T22:38:58.597Z,30.85
2019-03-29T22:41:24.753Z,24.27
2019-03-29T22:43:50.890Z,22.13
2019-03-29T22:46:18.059Z,20.35
2019-03-29T22:48:52.084Z,19.27
2019-03-29T22:51:12.002Z,17.75
2019-03-29T22:53:38.130Z,19.05
2019-03-29T22:56:04.065Z,17.48
2019-03-29T22:58:30.089Z,16.82
2019-03-29T23:00:56.530Z,15.32
2019-03-29T23:03:22.691Z,15.45
2019-03-29T23:05:48.821Z,16.17
2019-03-29T23:08:14.944Z,18.50
2019-03-29T23:10:41.122Z,17.27
2019-03-29T23:13:07.237Z,16.90
2019-03-29T23:15:33.399Z,21.62
2019-03-29T23:17:59.522Z,27.02
2019-03-29T23:20:25.714Z,26.27
2019-03-29T23:22:51.843Z,21.57
2019-03-29T23:25:18.015Z,24.23
2019-03-29T23:27:44.046Z,19.00
2019-03-29T23:30:10.844Z,19.32
2019-03-29T23:32:36.984Z,17.17
2019-03-29T23:35:06.088Z,23.25
2019-03-29T23:37:32.259Z,23.35
2019-03-29T23:39:58.311Z,26.20
2019-03-29T23:42:24.474Z,23.42
2019-03-29T23:44:50.637Z,21.75
2019-03-29T23:47:16.655Z,18.73
2019-03-29T23:49:42.716Z,19.73
2019-03-29T23:52:08.832Z,20.08
2019-03-29T23:54:34.856Z,19.77
2019-03-29T23:57:00.994Z,19.70
2019-03-29T23:59:27.216Z,17.92
